createdAt,value
2019-02-08T00:00:40.634Z,94.40
2019-02-08T00:03:08.329Z,94.30
2019-02-08T00:05:36.569Z,94.30
2019-02-08T00:08:04.574Z,94.40
2019-02-08T00:10:32.134Z,94.40
2019-02-08T00:13:00.030Z,94.40
2019-02-08T00:15:27.835Z,94.50
2019-02-08T00:17:55.353Z,94.40
2019-02-08T00:20:23.086Z,94.50
2019-02-08T00:22:51.027Z,94.40
2019-02-08T00:25:18.897Z,94.50
2019-02-08T00:27:46.654Z,94.50
2019-02-08T00:30:18.701Z,94.40
2019-02-08T00:32:46.484Z,94.40
2019-02-08T00:35:14.138Z,94.40
2019-02-08T00:37:41.997Z,94.30
2019-02-08T00:40:12.025Z,94.60
2019-02-08T00:42:40.474Z,94.50
2019-02-08T00:45:10.855Z,94.80
2019-02-08T00:47:38.420Z,94.50
2019-02-08T00:50:10.247Z,94.40
2019-02-08T00:52:37.901Z,94.60
2019-02-08T00:55:05.816Z,94.30
2019-02-08T00:57:33.265Z,94.30
2019-02-08T01:00:00.789Z,94.20
2019-02-08T01:02:29.037Z,94.30
2019-02-08T01:04:57.001Z,94.20
2019-02-08T01:07:24.669Z,94.20
2019-02-08T01:09:52.310Z,94.10
2019-02-08T01:12:20.113Z,94.10
2019-02-08T01:14:47.782Z,94.10
2019-02-08T01:17:15.476Z,94.50
2019-02-08T01:19:43.045Z,94.30
2019-02-08T01:22:17.910Z,94.60
2019-02-08T01:24:45.374Z,95.10
2019-02-08T01:27:13.143Z,95.10
2019-02-08T01:29:41.031Z,94.90
2019-02-08T01:32:08.780Z,95.00
2019-02-08T01:34:36.762Z,94.90
2019-02-08T01:37:04.428Z,94.90
2019-02-08T01:39:32.075Z,95.20
2019-02-08T01:41:59.839Z,94.80
2019-02-08T01:44:27.482Z,94.80
2019-02-08T01:46:55.446Z,94.80
2019-02-08T01:49:23.331Z,94.80
2019-02-08T01:51:51.151Z,94.70
2019-02-08T01:54:18.829Z,94.70
2019-02-08T01:56:46.665Z,94.70
2019-02-08T01:59:14.202Z,94.70
2019-02-08T02:01:42.063Z,94.70
2019-02-08T02:04:10.305Z,94.80
2019-02-08T02:06:38.150Z,95.00
2019-02-08T02:09:07.531Z,95.00
2019-02-08T02:11:35.573Z,94.90
2019-02-08T02:14:04.291Z,95.00
2019-02-08T02:16:32.007Z,95.30
2019-02-08T02:18:59.589Z,95.10
2019-02-08T02:21:27.868Z,95.20
2019-02-08T02:23:56.545Z,95.10
2019-02-08T02:26:24.166Z,95.20
2019-02-08T02:28:53.056Z,95.30
2019-02-08T02:31:20.793Z,95.10
2019-02-08T02:33:48.516Z,94.80
2019-02-08T02:36:16.285Z,94.70
2019-02-08T02:38:43.871Z,94.60
2019-02-08T02:41:11.474Z,94.50
2019-02-08T02:43:39.104Z,94.50
2019-02-08T02:46:06.537Z,94.50
2019-02-08T02:48:34.362Z,94.60
2019-02-08T02:51:02.290Z,94.60
2019-02-08T02:53:29.873Z,94.50
2019-02-08T02:55:57.532Z,94.50
2019-02-08T02:58:25.285Z,94.50
2019-02-08T03:00:53.102Z,94.40
2019-02-08T03:03:20.582Z,94.40
2019-02-08T03:05:48.494Z,94.60
2019-02-08T03:08:16.599Z,94.50
2019-02-08T03:10:44.704Z,94.40
2019-02-08T03:13:12.403Z,94.40
2019-02-08T03:15:40.662Z,94.40
2019-02-08T03:18:08.402Z,94.30
2019-02-08T03:20:38.157Z,94.50
2019-02-08T03:23:06.307Z,94.50
2019-02-08T03:25:35.118Z,94.50
2019-02-08T03:28:03.092Z,94.60
2019-02-08T03:30:35.616Z,94.50
2019-02-08T03:33:03.622Z,94.40
2019-02-08T03:35:31.790Z,94.20
2019-02-08T03:37:59.566Z,94.10
2019-02-08T03:40:27.484Z,94.10
2019-02-08T03:42:55.706Z,94.10
2019-02-08T03:45:24.295Z,94.10
2019-02-08T03:47:52.131Z,94.20
2019-02-08T03:50:20.218Z,94.20
2019-02-08T03:52:48.164Z,94.10
2019-02-08T03:55:18.043Z,94.10
2019-02-08T03:57:45.944Z,94.10
2019-02-08T04:00:36.621Z,94.10
2019-02-08T04:03:04.509Z,94.00
2019-02-08T04:05:32.212Z,93.90
2019-02-08T04:07:59.829Z,93.90
2019-02-08T04:10:28.243Z,93.80
2019-02-08T04:12:56.010Z,93.70
2019-02-08T04:15:24.841Z,93.50
2019-02-08T04:17:53.962Z,93.40
2019-02-08T04:20:25.340Z,93.40
2019-02-08T04:22:53.963Z,93.40
2019-02-08T04:25:21.790Z,93.40
2019-02-08T04:27:49.482Z,93.60
2019-02-08T04:30:25.924Z,93.80
2019-02-08T04:32:53.708Z,93.40
2019-02-08T04:35:21.420Z,93.30
2019-02-08T04:37:49.112Z,93.30
2019-02-08T04:40:18.582Z,93.20
2019-02-08T04:42:47.222Z,93.30
2019-02-08T04:45:15.532Z,93.10
2019-02-08T04:47:44.364Z,93.60
2019-02-08T04:50:14.828Z,93.20
2019-02-08T04:52:42.681Z,93.20
2019-02-08T04:55:10.410Z,93.10
2019-02-08T04:57:39.552Z,93.40
2019-02-08T05:00:18.326Z,93.20
2019-02-08T05:02:46.557Z,93.10
2019-02-08T05:05:14.267Z,92.90
2019-02-08T05:07:42.745Z,92.70
2019-02-08T05:10:12.456Z,92.60
2019-02-08T05:12:39.956Z,92.80
2019-02-08T05:15:08.112Z,92.80
2019-02-08T05:17:35.711Z,92.80
2019-02-08T05:20:04.662Z,92.80
2019-02-08T05:22:32.035Z,93.00
2019-02-08T05:24:59.499Z,92.90
2019-02-08T05:27:26.977Z,93.00
2019-02-08T05:29:54.354Z,93.10
2019-02-08T05:32:21.790Z,93.10
2019-02-08T05:34:49.267Z,93.10
2019-02-08T05:37:17.483Z,93.10
2019-02-08T05:39:45.640Z,93.00
2019-02-08T05:42:13.039Z,92.80
2019-02-08T05:44:40.562Z,92.90
2019-02-08T05:47:08.228Z,92.80
2019-02-08T05:49:35.821Z,92.60
2019-02-08T05:52:03.769Z,92.70
2019-02-08T05:54:31.178Z,92.60
2019-02-08T05:56:58.602Z,92.50
2019-02-08T05:59:26.194Z,92.40
2019-02-08T06:01:53.781Z,92.30
2019-02-08T06:04:21.351Z,92.60
2019-02-08T06:06:49.002Z,92.40
2019-02-08T06:09:17.207Z,92.30
2019-02-08T06:11:44.692Z,92.30
2019-02-08T06:14:12.483Z,92.30
2019-02-08T06:16:40.039Z,92.30
2019-02-08T06:19:07.595Z,92.10
2019-02-08T06:21:35.150Z,92.10
2019-02-08T06:24:02.804Z,92.00
2019-02-08T06:26:30.461Z,91.90
2019-02-08T06:28:58.019Z,91.80
2019-02-08T06:31:25.495Z,91.80
2019-02-08T06:33:53.018Z,91.80
2019-02-08T06:36:20.470Z,91.70
2019-02-08T06:38:48.085Z,91.60
2019-02-08T06:41:15.427Z,91.40
2019-02-08T06:43:43.406Z,91.30
2019-02-08T06:46:10.877Z,91.40
2019-02-08T06:48:38.686Z,91.10
2019-02-08T06:51:06.569Z,91.00
2019-02-08T06:53:34.355Z,90.80
2019-02-08T06:56:01.923Z,90.70
2019-02-08T06:58:44.044Z,90.60
2019-02-08T07:01:29.776Z,90.50
2019-02-08T07:04:21.490Z,90.50
2019-02-08T07:07:08.151Z,90.50
2019-02-08T07:09:48.710Z,90.50
2019-02-08T07:12:35.943Z,90.60
2019-02-08T07:15:32.157Z,90.60
2019-02-08T07:18:31.348Z,90.60
2019-02-08T07:21:21.383Z,90.40
2019-02-08T07:24:18.323Z,90.10
2019-02-08T07:27:01.724Z,89.50
2019-02-08T07:29:42.298Z,89.00
2019-02-08T07:32:47.657Z,88.50
2019-02-08T07:35:31.209Z,87.90
2019-02-08T07:38:22.195Z,87.10
2019-02-08T07:41:15.715Z,86.40
2019-02-08T07:44:12.075Z,85.70
2019-02-08T07:47:01.185Z,85.20
2019-02-08T07:49:53.751Z,85.00
2019-02-08T07:52:31.273Z,84.90
2019-02-08T07:55:09.416Z,84.50
2019-02-08T07:57:54.178Z,84.60
2019-02-08T08:00:49.503Z,84.50
2019-02-08T08:03:35.142Z,83.90
2019-02-08T08:06:35.303Z,84.00
2019-02-08T08:09:28.269Z,83.40
2019-02-08T08:12:18.578Z,83.40
2019-02-08T08:15:07.124Z,83.40
2019-02-08T08:17:52.982Z,83.30
2019-02-08T08:20:46.679Z,83.20
2019-02-08T08:23:38.917Z,82.60
2019-02-08T08:26:21.454Z,82.10
2019-02-08T08:29:17.384Z,81.30
2019-02-08T08:32:28.929Z,81.20
2019-02-08T08:35:23.181Z,81.10
2019-02-08T08:39:07.521Z,80.60
2019-02-08T08:43:01.213Z,80.60
2019-02-08T08:46:31.772Z,80.60
2019-02-08T08:50:17.803Z,80.70
2019-02-08T08:53:55.608Z,80.90
2019-02-08T08:57:14.953Z,81.40
2019-02-08T09:00:21.408Z,81.50
2019-02-08T09:03:22.383Z,82.00
2019-02-08T09:06:38.199Z,82.60
2019-02-08T09:09:47.542Z,82.60
2019-02-08T09:13:14.552Z,82.00
2019-02-08T09:17:02.347Z,81.80
2019-02-08T09:20:40.499Z,82.00
2019-02-08T09:23:52.843Z,82.10
2019-02-08T09:27:08.004Z,81.40
2019-02-08T09:30:25.298Z,80.60
2019-02-08T09:33:32.721Z,78.60
2019-02-08T09:37:02.467Z,76.50
2019-02-08T09:40:08.084Z,75.10
2019-02-08T09:43:26.192Z,74.60
2019-02-08T09:46:49.314Z,73.50
2019-02-08T09:50:16.563Z,74.00
2019-02-08T09:53:56.285Z,73.80
2019-02-08T09:57:35.719Z,73.80
2019-02-08T10:01:00.606Z,73.90
2019-02-08T10:04:18.816Z,74.10
2019-02-08T10:07:45.456Z,74.50
2019-02-08T10:11:09.027Z,74.50
2019-02-08T10:14:26.585Z,74.30
2019-02-08T10:17:41.749Z,73.70
2019-02-08T10:20:54.182Z,73.20
2019-02-08T10:24:18.361Z,72.40
2019-02-08T10:27:53.027Z,72.60
2019-02-08T10:31:14.036Z,71.50
2019-02-08T10:34:57.073Z,70.50
2019-02-08T10:38:17.873Z,70.00
2019-02-08T10:41:40.348Z,70.80
2019-02-08T10:45:12.786Z,71.50
2019-02-08T10:48:35.790Z,72.40
2019-02-08T10:52:13.441Z,71.60
2019-02-08T10:55:29.147Z,71.30
2019-02-08T10:58:57.567Z,70.20
2019-02-08T11:02:32.401Z,68.80
2019-02-08T11:06:21.892Z,67.00
2019-02-08T11:10:08.805Z,66.70
2019-02-08T11:13:23.616Z,64.50
2019-02-08T11:17:00.708Z,63.30
2019-02-08T11:19:27.006Z,63.50
2019-02-08T11:21:54.557Z,61.70
2019-02-08T11:24:26.217Z,61.50
2019-02-08T11:26:56.213Z,61.10
2019-02-08T11:29:24.771Z,60.60
2019-02-08T11:31:52.419Z,60.00
2019-02-08T11:34:20.526Z,58.60
2019-02-08T11:36:48.298Z,58.60
2019-02-08T11:39:17.936Z,58.20
2019-02-08T11:41:46.808Z,58.40
2019-02-08T11:44:15.102Z,58.50
2019-02-08T11:46:43.985Z,58.80
2019-02-08T11:49:11.949Z,58.40
2019-02-08T11:51:39.530Z,58.80
2019-02-08T11:54:07.105Z,59.40
2019-02-08T11:56:34.665Z,59.40
2019-02-08T11:59:02.328Z,59.20
2019-02-08T12:01:34.329Z,57.90
2019-02-08T12:04:01.871Z,56.10
2019-02-08T12:06:30.286Z,54.30
2019-02-08T12:08:57.725Z,53.40
2019-02-08T12:11:25.152Z,52.70
2019-02-08T12:13:52.640Z,52.70
2019-02-08T12:16:20.000Z,52.20
2019-02-08T12:18:47.343Z,52.10
2019-02-08T12:21:15.746Z,51.80
2019-02-08T12:23:43.080Z,50.90
2019-02-08T12:26:10.537Z,48.70
2019-02-08T12:28:38.005Z,46.50
2019-02-08T12:31:05.819Z,45.00
2019-02-08T12:33:33.178Z,44.00
2019-02-08T12:36:01.390Z,43.70
2019-02-08T12:38:28.811Z,41.90
2019-02-08T12:40:56.239Z,38.40
2019-02-08T12:43:23.765Z,36.00
2019-02-08T12:45:51.281Z,34.50
2019-02-08T12:48:18.745Z,32.60
2019-02-08T12:50:46.280Z,31.30
2019-02-08T12:53:13.667Z,29.90
2019-02-08T12:55:42.735Z,30.70
2019-02-08T12:58:10.196Z,30.20
2019-02-08T13:00:37.797Z,29.60
2019-02-08T13:03:05.360Z,29.20
2019-02-08T13:05:33.674Z,28.60
2019-02-08T13:08:02.076Z,27.80
2019-02-08T13:10:30.048Z,27.40
2019-02-08T13:12:58.315Z,26.80
2019-02-08T13:15:25.993Z,26.40
2019-02-08T13:17:54.161Z,25.70
2019-02-08T13:20:21.720Z,25.50
2019-02-08T13:22:49.417Z,25.20
2019-02-08T13:25:17.721Z,24.80
2019-02-08T13:27:45.446Z,24.40
2019-02-08T13:30:20.377Z,24.20
2019-02-08T13:32:48.633Z,24.00
2019-02-08T13:35:16.560Z,23.80
2019-02-08T13:37:43.992Z,24.10
2019-02-08T13:40:12.884Z,24.20
2019-02-08T13:42:40.525Z,24.30
2019-02-08T13:45:09.957Z,24.10
2019-02-08T13:47:37.410Z,24.00
2019-02-08T13:50:22.922Z,23.70
2019-02-08T13:52:50.753Z,23.40
2019-02-08T13:55:19.823Z,23.40
2019-02-08T13:57:47.448Z,23.50
2019-02-08T14:00:24.697Z,23.60
2019-02-08T14:02:52.285Z,23.40
2019-02-08T14:05:19.890Z,23.80
2019-02-08T14:07:47.452Z,24.10
2019-02-08T14:10:16.173Z,24.40
2019-02-08T14:12:44.090Z,24.50
2019-02-08T14:15:11.788Z,24.70
2019-02-08T14:17:39.368Z,24.90
2019-02-08T14:20:10.115Z,24.90
2019-02-08T14:22:37.757Z,25.10
2019-02-08T14:25:07.316Z,25.40
2019-02-08T14:27:34.924Z,25.80
2019-02-08T14:30:05.866Z,26.00
2019-02-08T14:32:33.461Z,26.20
2019-02-08T14:35:01.048Z,26.30
2019-02-08T14:37:28.872Z,26.50
2019-02-08T14:39:56.360Z,26.60
2019-02-08T14:42:23.687Z,26.90
2019-02-08T14:44:52.429Z,27.50
2019-02-08T14:47:19.928Z,28.30
2019-02-08T14:49:47.612Z,29.10
2019-02-08T14:52:15.519Z,30.00
2019-02-08T14:54:43.071Z,31.00
2019-02-08T14:57:16.553Z,31.80
2019-02-08T14:59:43.240Z,33.30
2019-02-08T15:02:10.773Z,35.30
2019-02-08T15:04:39.789Z,37.20
2019-02-08T15:07:09.637Z,38.90
2019-02-08T15:09:37.091Z,41.00
2019-02-08T15:12:04.837Z,42.60
2019-02-08T15:14:33.636Z,44.20
2019-02-08T15:17:01.139Z,45.70
2019-02-08T15:19:29.444Z,47.30
2019-02-08T15:21:57.127Z,48.60
2019-02-08T15:24:25.524Z,50.50
2019-02-08T15:26:53.054Z,51.50
2019-02-08T15:29:20.430Z,52.60
2019-02-08T15:31:47.971Z,54.00
2019-02-08T15:34:15.866Z,54.90
2019-02-08T15:36:49.170Z,56.00
2019-02-08T15:39:14.978Z,57.10
2019-02-08T15:41:45.682Z,58.00
2019-02-08T15:44:15.638Z,59.10
2019-02-08T15:46:45.530Z,60.40
2019-02-08T15:49:17.334Z,62.10
2019-02-08T15:51:53.509Z,63.30
2019-02-08T15:54:22.610Z,64.70
2019-02-08T15:56:55.369Z,66.70
2019-02-08T15:59:24.855Z,68.60
2019-02-08T16:01:53.458Z,70.20
2019-02-08T16:04:21.012Z,71.30
2019-02-08T16:06:49.607Z,71.40
2019-02-08T16:09:16.973Z,72.80
2019-02-08T16:11:45.473Z,74.50
2019-02-08T16:14:13.046Z,75.90
2019-02-08T16:16:41.206Z,76.50
2019-02-08T16:19:09.187Z,76.80
2019-02-08T16:21:36.783Z,77.00
2019-02-08T16:24:05.171Z,78.30
2019-02-08T16:26:33.511Z,78.60
2019-02-08T16:29:03.079Z,80.10
2019-02-08T16:31:31.800Z,81.60
2019-02-08T16:33:59.284Z,82.80
2019-02-08T16:36:26.982Z,83.30
2019-02-08T16:38:54.651Z,83.60
2019-02-08T16:41:22.216Z,84.20
2019-02-08T16:43:50.308Z,84.40
2019-02-08T16:46:18.142Z,84.70
2019-02-08T16:48:46.032Z,85.80
2019-02-08T16:51:13.594Z,85.70
2019-02-08T16:53:41.998Z,86.30
2019-02-08T16:56:10.752Z,87.20
2019-02-08T16:58:43.539Z,87.20
2019-02-08T17:01:20.381Z,87.40
2019-02-08T17:03:55.389Z,88.00
2019-02-08T17:06:23.912Z,88.70
2019-02-08T17:08:51.595Z,89.70
2019-02-08T17:11:25.430Z,90.40
2019-02-08T17:13:55.002Z,90.50
2019-02-08T17:16:22.595Z,90.40
2019-02-08T17:18:50.056Z,90.40
2019-02-08T17:21:17.895Z,90.50
2019-02-08T17:23:45.750Z,90.50
2019-02-08T17:26:13.487Z,90.80
2019-02-08T17:28:40.835Z,91.00
2019-02-08T17:31:09.215Z,91.20
2019-02-08T17:33:36.558Z,91.40
2019-02-08T17:36:04.219Z,91.50
2019-02-08T17:38:32.145Z,91.70
2019-02-08T17:41:00.463Z,91.90
2019-02-08T17:43:28.914Z,92.60
2019-02-08T17:45:57.813Z,92.60
2019-02-08T17:48:25.777Z,92.40
2019-02-08T17:50:53.671Z,92.50
2019-02-08T17:53:24.257Z,92.50
2019-02-08T17:55:53.636Z,92.50
2019-02-08T17:58:21.787Z,92.60
2019-02-08T18:00:54.290Z,92.60
2019-02-08T18:03:22.197Z,92.70
2019-02-08T18:05:50.392Z,92.90
2019-02-08T18:08:18.565Z,93.10
2019-02-08T18:10:46.469Z,93.20
2019-02-08T18:13:16.453Z,93.20
2019-02-08T18:15:45.404Z,93.30
2019-02-08T18:18:19.470Z,93.60
2019-02-08T18:20:51.996Z,93.20
2019-02-08T18:23:19.921Z,93.30
2019-02-08T18:25:47.978Z,93.50
2019-02-08T18:28:16.844Z,93.90
2019-02-08T18:30:45.648Z,93.70
2019-02-08T18:33:15.020Z,93.80
2019-02-08T18:35:43.187Z,93.90
2019-02-08T18:38:10.881Z,94.00
2019-02-08T18:40:39.665Z,94.10
2019-02-08T18:43:07.744Z,94.10
2019-02-08T18:45:36.326Z,94.20
2019-02-08T18:48:05.349Z,94.20
2019-02-08T18:50:40.117Z,94.30
2019-02-08T18:53:09.537Z,94.00
2019-02-08T18:55:37.460Z,94.30
2019-02-08T18:58:05.633Z,94.30
2019-02-08T19:00:40.128Z,94.30
2019-02-08T19:03:09.063Z,94.60
2019-02-08T19:05:37.599Z,94.80
2019-02-08T19:08:15.895Z,95.10
2019-02-08T19:11:31.495Z,95.70
2019-02-08T19:14:06.676Z,96.10
2019-02-08T19:16:38.959Z,95.70
2019-02-08T19:22:32.674Z,95.40
2019-02-08T19:28:38.073Z,95.50
2019-02-08T19:32:01.183Z,95.40
2019-02-08T19:34:29.225Z,95.60
2019-02-08T19:36:56.899Z,95.70
2019-02-08T19:39:24.972Z,96.10
2019-02-08T19:41:52.742Z,96.00
2019-02-08T19:44:21.010Z,96.00
2019-02-08T19:46:49.576Z,96.00
2019-02-08T19:49:19.104Z,96.10
2019-02-08T19:51:52.571Z,96.00
2019-02-08T19:54:20.119Z,95.80
2019-02-08T19:57:39.771Z,95.80
2019-02-08T20:00:13.001Z,95.70
2019-02-08T20:02:42.679Z,95.70
2019-02-08T20:05:15.937Z,95.50
2019-02-08T20:07:44.086Z,95.50
2019-02-08T20:10:16.951Z,95.50
2019-02-08T20:12:45.434Z,95.60
2019-02-08T20:15:15.966Z,95.60
2019-02-08T20:18:13.970Z,95.60
2019-02-08T20:20:43.503Z,95.70
2019-02-08T20:23:11.936Z,95.80
2019-02-08T20:25:40.123Z,95.80
2019-02-08T20:28:08.517Z,95.90
2019-02-08T20:30:36.573Z,95.70
2019-02-08T20:33:10.131Z,95.70
2019-02-08T20:35:41.160Z,95.70
2019-02-08T20:38:09.771Z,95.70
2019-02-08T20:40:49.926Z,95.70
2019-02-08T20:43:17.469Z,95.70
2019-02-08T20:45:46.039Z,95.70
2019-02-08T20:48:17.288Z,95.60
2019-02-08T20:50:45.231Z,95.70
2019-02-08T20:53:14.257Z,95.80
2019-02-08T20:55:42.072Z,96.00
2019-02-08T20:58:11.571Z,96.00
2019-02-08T21:00:43.370Z,96.40
2019-02-08T21:03:13.285Z,96.50
2019-02-08T21:05:42.982Z,96.40
2019-02-08T21:08:11.498Z,96.60
2019-02-08T21:10:40.050Z,96.50
2019-02-08T21:13:09.924Z,96.50
2019-02-08T21:15:37.870Z,96.60
2019-02-08T21:18:06.539Z,96.70
2019-02-08T21:20:34.210Z,96.80
2019-02-08T21:23:02.079Z,96.90
2019-02-08T21:25:30.327Z,97.10
2019-02-08T21:27:58.182Z,97.10
2019-02-08T21:30:26.186Z,97.20
2019-02-08T21:32:54.016Z,97.10
2019-02-08T21:35:21.747Z,97.30
2019-02-08T21:37:49.480Z,97.40
2019-02-08T21:40:22.190Z,97.50
2019-02-08T21:42:50.265Z,97.50
2019-02-08T21:45:29.775Z,98.00
2019-02-08T21:47:57.456Z,97.70
2019-02-08T21:50:25.320Z,97.30
2019-02-08T21:52:53.403Z,97.10
2019-02-08T21:55:23.274Z,97.20
2019-02-08T21:57:52.886Z,97.20
2019-02-08T22:00:23.689Z,97.20
2019-02-08T22:02:52.915Z,97.30
2019-02-08T22:05:28.216Z,97.30
2019-02-08T22:07:56.704Z,97.30
2019-02-08T22:10:24.870Z,97.20
2019-02-08T22:12:52.395Z,97.10
2019-02-08T22:15:27.438Z,97.10
2019-02-08T22:17:55.101Z,97.00
2019-02-08T22:20:24.658Z,96.90
2019-02-08T22:22:52.981Z,96.90
2019-02-08T22:25:22.387Z,96.90
2019-02-08T22:27:50.093Z,96.90
2019-02-08T22:30:22.542Z,96.80
2019-02-08T22:32:52.584Z,96.70
2019-02-08T22:35:22.631Z,96.70
2019-02-08T22:37:50.524Z,96.60
2019-02-08T22:40:19.081Z,96.60
2019-02-08T22:42:46.887Z,96.60
2019-02-08T22:45:31.278Z,96.60
2019-02-08T22:47:59.121Z,96.50
2019-02-08T22:50:27.794Z,96.60
2019-02-08T22:52:55.713Z,96.60
2019-02-08T22:55:25.873Z,96.60
2019-02-08T22:57:54.350Z,96.80
2019-02-08T23:01:19.780Z,96.60
2019-02-08T23:03:47.731Z,96.70
2019-02-08T23:06:15.622Z,96.80
2019-02-08T23:08:43.392Z,96.80
2019-02-08T23:11:11.187Z,96.70
2019-02-08T23:13:38.952Z,96.70
2019-02-08T23:16:06.728Z,96.60
2019-02-08T23:18:34.612Z,96.60
2019-02-08T23:21:02.555Z,96.60
2019-02-08T23:23:31.861Z,96.60
2019-02-08T23:26:11.918Z,96.70
2019-02-08T23:28:44.927Z,96.70
2019-02-08T23:31:14.433Z,96.60
2019-02-08T23:33:42.266Z,96.60
2019-02-08T23:36:10.710Z,96.60
2019-02-08T23:38:38.308Z,96.70
2019-02-08T23:41:05.901Z,96.80
2019-02-08T23:43:34.315Z,96.80
2019-02-08T23:46:03.437Z,97.10
2019-02-08T23:48:32.193Z,97.10
2019-02-08T23:51:00.056Z,97.10
2019-02-08T23:53:28.609Z,97.10
2019-02-08T23:55:56.306Z,97.10
2019-02-08T23:58:23.933Z,97.30
